createdAt,value
2022-11-12T00:00:02.011Z,0.00
2022-11-12T00:01:01.984Z,0.00
2022-11-12T00:02:01.945Z,0.00
2022-11-12T00:03:01.878Z,0.00
2022-11-12T00:04:01.827Z,0.00
2022-11-12T00:05:01.785Z,0.00
2022-11-12T00:06:01.741Z,0.00
2022-11-12T00:07:01.732Z,0.00
2022-11-12T00:08:01.669Z,0.00
2022-11-12T00:09:01.636Z,0.00
2022-11-12T00:10:01.560Z,0.00
2022-11-12T00:11:01.522Z,0.00
2022-11-12T00:12:01.467Z,0.00
2022-11-12T00:13:01.425Z,0.00
2022-11-12T00:14:01.380Z,0.00
2022-11-12T00:15:01.351Z,0.00
2022-11-12T00:16:01.291Z,0.00
2022-11-12T00:17:01.241Z,0.00
2022-11-12T00:18:01.198Z,0.00
2022-11-12T00:19:01.151Z,0.00
2022-11-12T00:20:01.108Z,0.00
2022-11-12T00:21:01.150Z,0.00
2022-11-12T00:22:01.015Z,0.00
2022-11-12T00:23:00.973Z,0.00
2022-11-12T00:24:00.923Z,0.00
2022-11-12T00:25:00.881Z,0.00
2022-11-12T00:26:00.848Z,0.00
2022-11-12T00:27:00.829Z,0.00
2022-11-12T00:28:00.742Z,0.00
2022-11-12T00:29:00.698Z,0.00
2022-11-12T00:30:00.654Z,0.00
2022-11-12T00:31:00.607Z,0.00
2022-11-12T00:32:00.561Z,0.00
2022-11-12T00:33:00.546Z,0.00
2022-11-12T00:34:00.474Z,0.00
2022-11-12T00:35:02.811Z,0.00
2022-11-12T00:36:00.381Z,0.00
2022-11-12T00:37:00.355Z,0.00
2022-11-12T00:38:00.293Z,0.00
2022-11-12T00:39:00.247Z,0.00
2022-11-12T00:40:00.199Z,0.00
2022-11-12T00:41:00.152Z,0.00
2022-11-12T00:42:00.112Z,0.00
2022-11-12T00:43:00.097Z,0.00
2022-11-12T00:44:00.020Z,0.00
2022-11-12T00:44:59.982Z,0.00
2022-11-12T00:45:59.926Z,0.00
2022-11-12T00:46:59.879Z,0.00
2022-11-12T00:47:59.841Z,0.00
2022-11-12T00:48:59.819Z,0.00
2022-11-12T00:49:59.742Z,0.00
2022-11-12T00:50:59.730Z,0.00
2022-11-12T00:51:59.658Z,0.00
2022-11-12T00:52:59.614Z,0.00
2022-11-12T00:53:59.567Z,0.00
2022-11-12T00:54:59.519Z,0.00
2022-11-12T00:55:59.475Z,0.00
2022-11-12T00:56:59.451Z,0.00
2022-11-12T00:57:59.393Z,0.00
2022-11-12T00:58:59.334Z,0.00
2022-11-12T00:59:59.292Z,0.00
2022-11-12T01:00:59.287Z,0.00
2022-11-12T01:01:59.200Z,0.00
2022-11-12T01:02:59.175Z,0.00
2022-11-12T01:03:59.191Z,0.00
2022-11-12T01:04:59.067Z,0.00
2022-11-12T01:05:59.021Z,0.00
2022-11-12T01:06:59.000Z,0.00
2022-11-12T01:07:58.930Z,0.00
2022-11-12T01:08:58.908Z,0.00
2022-11-12T01:09:58.845Z,0.00
2022-11-12T01:10:58.789Z,0.00
2022-11-12T01:11:58.749Z,0.00
2022-11-12T01:12:58.733Z,0.00
2022-11-12T01:13:58.660Z,0.00
2022-11-12T01:14:58.610Z,0.00
2022-11-12T01:15:58.569Z,0.00
2022-11-12T01:16:58.538Z,0.00
2022-11-12T01:17:58.477Z,0.00
2022-11-12T01:18:58.429Z,0.00
2022-11-12T01:19:58.385Z,0.00
2022-11-12T01:20:58.341Z,0.00
2022-11-12T01:21:58.294Z,0.00
2022-11-12T01:22:58.262Z,0.00
2022-11-12T01:23:58.207Z,0.00
2022-11-12T01:24:58.158Z,0.00
2022-11-12T01:25:58.255Z,0.00
2022-11-12T01:26:58.069Z,0.00
2022-11-12T01:27:58.024Z,0.00
2022-11-12T01:28:57.979Z,0.00
2022-11-12T01:29:57.934Z,0.00
2022-11-12T01:30:57.915Z,0.00
2022-11-12T01:31:57.881Z,0.00
2022-11-12T01:32:57.797Z,0.00
2022-11-12T01:33:57.756Z,0.00
2022-11-12T01:34:57.736Z,0.00
2022-11-12T01:35:57.685Z,0.00
2022-11-12T01:36:57.621Z,0.00
2022-11-12T01:37:57.575Z,0.00
2022-11-12T01:38:57.522Z,0.00
2022-11-12T01:39:57.510Z,0.00
2022-11-12T01:40:57.435Z,0.00
2022-11-12T01:41:57.391Z,0.00
2022-11-12T01:42:57.349Z,0.00
2022-11-12T01:43:57.302Z,0.00
2022-11-12T01:44:57.258Z,0.00
2022-11-12T01:45:57.248Z,0.00
2022-11-12T01:46:57.166Z,0.00
2022-11-12T01:47:57.117Z,0.00
2022-11-12T01:48:57.074Z,0.00
2022-11-12T01:49:57.403Z,0.00
2022-11-12T01:50:56.983Z,0.00
2022-11-12T01:51:56.972Z,0.00
2022-11-12T01:52:56.895Z,0.00
2022-11-12T01:53:56.849Z,0.00
2022-11-12T01:54:56.805Z,0.00
2022-11-12T01:55:56.758Z,0.00
2022-11-12T01:56:56.712Z,0.00
2022-11-12T01:57:56.698Z,0.00
2022-11-12T01:58:56.627Z,0.00
2022-11-12T01:59:56.579Z,0.00
2022-11-12T02:00:56.543Z,0.00
2022-11-12T02:01:56.490Z,0.00
2022-11-12T02:02:56.441Z,0.00
2022-11-12T02:03:56.417Z,0.00
2022-11-12T02:04:56.357Z,0.00
2022-11-12T02:05:56.313Z,0.00
2022-11-12T02:06:56.282Z,0.00
2022-11-12T02:07:56.215Z,0.00
2022-11-12T02:08:56.175Z,0.00
2022-11-12T02:09:56.169Z,0.00
2022-11-12T02:10:56.086Z,0.00
2022-11-12T02:11:56.041Z,0.00
2022-11-12T02:12:55.991Z,0.00
2022-11-12T02:13:55.949Z,0.00
2022-11-12T02:14:55.897Z,0.00
2022-11-12T02:15:55.871Z,0.00
2022-11-12T02:16:55.814Z,0.00
2022-11-12T02:17:55.764Z,0.00
2022-11-12T02:18:55.720Z,0.00
2022-11-12T02:19:55.681Z,0.00
2022-11-12T02:20:55.632Z,0.00
2022-11-12T02:21:55.600Z,0.00
2022-11-12T02:22:55.539Z,0.00
2022-11-12T02:23:55.501Z,0.00
2022-11-12T02:24:55.450Z,0.00
2022-11-12T02:25:55.414Z,0.00
2022-11-12T02:26:55.358Z,0.00
2022-11-12T02:27:55.327Z,0.00
2022-11-12T02:28:55.267Z,0.00
2022-11-12T02:29:55.220Z,0.00
2022-11-12T02:30:55.175Z,0.00
2022-11-12T02:31:55.131Z,0.00
2022-11-12T02:32:55.085Z,0.00
2022-11-12T02:33:55.071Z,0.00
2022-11-12T02:34:55.000Z,0.00
2022-11-12T02:35:54.952Z,0.00
2022-11-12T02:36:54.906Z,0.00
2022-11-12T02:37:54.860Z,0.00
2022-11-12T02:38:54.816Z,0.00
2022-11-12T02:39:54.790Z,0.00
2022-11-12T02:40:54.729Z,0.00
2022-11-12T02:41:54.684Z,0.00
2022-11-12T02:42:54.634Z,0.00
2022-11-12T02:43:54.593Z,0.00
2022-11-12T02:44:54.546Z,0.00
2022-11-12T02:45:54.533Z,0.00
2022-11-12T02:46:54.451Z,0.00
2022-11-12T02:47:54.404Z,0.00
2022-11-12T02:48:54.368Z,0.00
2022-11-12T02:49:54.321Z,0.00
2022-11-12T02:50:54.277Z,0.00
2022-11-12T02:51:54.256Z,0.00
2022-11-12T02:52:54.184Z,0.00
2022-11-12T02:53:54.136Z,0.00
2022-11-12T02:54:54.095Z,0.00
2022-11-12T02:55:54.050Z,0.00
2022-11-12T02:56:54.005Z,0.00
2022-11-12T02:57:53.980Z,0.00
2022-11-12T02:58:53.913Z,0.00
2022-11-12T02:59:53.873Z,0.00
2022-11-12T03:00:53.869Z,0.00
2022-11-12T03:01:53.785Z,0.00
2022-11-12T03:02:53.731Z,0.00
2022-11-12T03:03:53.716Z,0.00
2022-11-12T03:04:53.643Z,0.00
2022-11-12T03:05:53.596Z,0.00
2022-11-12T03:06:53.601Z,0.00
2022-11-12T03:07:53.520Z,0.00
2022-11-12T03:08:53.460Z,0.00
2022-11-12T03:09:53.435Z,0.00
2022-11-12T03:10:53.374Z,0.00
2022-11-12T03:11:53.332Z,0.00
2022-11-12T03:12:53.286Z,0.00
2022-11-12T03:13:53.243Z,0.00
2022-11-12T03:14:53.195Z,0.00
2022-11-12T03:15:53.193Z,0.00
2022-11-12T03:16:53.103Z,0.00
2022-11-12T03:17:53.057Z,0.00
2022-11-12T03:18:53.011Z,0.00
2022-11-12T03:19:52.973Z,0.00
2022-11-12T03:20:53.734Z,0.00
2022-11-12T03:21:52.989Z,0.00
2022-11-12T03:22:52.832Z,0.00
2022-11-12T03:23:52.792Z,0.00
2022-11-12T03:24:52.748Z,0.00
2022-11-12T03:25:52.701Z,0.00
2022-11-12T03:26:52.652Z,0.00
2022-11-12T03:27:52.643Z,0.00
2022-11-12T03:28:52.563Z,0.00
2022-11-12T03:29:52.522Z,0.00
2022-11-12T03:30:52.469Z,0.00
2022-11-12T03:31:52.431Z,0.00
2022-11-12T03:32:52.380Z,0.00
2022-11-12T03:33:52.360Z,0.00
2022-11-12T03:34:55.451Z,0.00
2022-11-12T03:35:52.245Z,0.00
2022-11-12T03:36:52.204Z,0.00
2022-11-12T03:37:52.164Z,0.00
2022-11-12T03:38:52.113Z,0.00
2022-11-12T03:39:52.086Z,0.00
2022-11-12T03:40:52.022Z,0.00
2022-11-12T03:41:51.979Z,0.00
2022-11-12T03:42:51.933Z,0.00
2022-11-12T03:43:51.887Z,0.00
2022-11-12T03:44:51.841Z,0.00
2022-11-12T03:45:51.814Z,0.00
2022-11-12T03:46:51.753Z,0.00
2022-11-12T03:47:51.704Z,0.00
2022-11-12T03:48:51.666Z,0.00
2022-11-12T03:49:51.615Z,0.00
2022-11-12T03:50:51.570Z,0.00
2022-11-12T03:51:51.541Z,0.00
2022-11-12T03:52:51.482Z,0.00
2022-11-12T03:53:51.432Z,0.00
2022-11-12T03:54:51.389Z,0.00
2022-11-12T03:55:51.388Z,0.00
2022-11-12T03:56:51.298Z,0.00
2022-11-12T03:57:51.275Z,0.00
2022-11-12T03:58:51.208Z,0.00
2022-11-12T03:59:51.165Z,0.00
2022-11-12T04:00:51.267Z,0.00
2022-11-12T04:01:51.075Z,0.00
2022-11-12T04:02:51.029Z,0.00
2022-11-12T04:03:50.987Z,0.00
2022-11-12T04:04:50.940Z,0.00
2022-11-12T04:05:50.896Z,0.00
2022-11-12T04:06:50.895Z,0.00
2022-11-12T04:07:50.803Z,0.00
2022-11-12T04:08:50.756Z,0.00
2022-11-12T04:09:50.709Z,0.00
2022-11-12T04:10:50.664Z,0.00
2022-11-12T04:11:50.621Z,0.00
2022-11-12T04:12:50.594Z,0.00
2022-11-12T04:13:50.529Z,0.00
2022-11-12T04:14:50.482Z,0.00
2022-11-12T04:15:50.441Z,0.00
2022-11-12T04:16:50.397Z,0.00
2022-11-12T04:17:50.348Z,0.00
2022-11-12T04:18:50.329Z,0.00
2022-11-12T04:19:50.258Z,0.00
2022-11-12T04:20:50.216Z,0.00
2022-11-12T04:21:50.171Z,0.00
2022-11-12T04:22:50.120Z,0.00
2022-11-12T04:23:50.075Z,0.00
2022-11-12T04:24:50.045Z,0.00
2022-11-12T04:25:49.987Z,0.00
2022-11-12T04:26:49.939Z,0.00
2022-11-12T04:27:49.895Z,0.00
2022-11-12T04:28:49.851Z,0.00
2022-11-12T04:29:49.803Z,0.00
2022-11-12T04:30:49.777Z,0.00
2022-11-12T04:31:49.712Z,0.00
2022-11-12T04:32:49.668Z,0.00
2022-11-12T04:33:49.626Z,0.00
2022-11-12T04:34:49.691Z,0.00
2022-11-12T04:35:49.531Z,0.00
2022-11-12T04:36:49.527Z,0.00
2022-11-12T04:37:49.444Z,0.00
2022-11-12T04:38:49.398Z,0.00
2022-11-12T04:39:49.352Z,0.00
2022-11-12T04:40:49.310Z,0.00
2022-11-12T04:41:49.260Z,0.00
2022-11-12T04:42:49.232Z,0.00
2022-11-12T04:43:49.172Z,0.00
2022-11-12T04:44:49.120Z,0.00
2022-11-12T04:45:49.077Z,0.00
2022-11-12T04:46:49.031Z,0.00
2022-11-12T04:47:48.987Z,0.00
2022-11-12T04:48:48.968Z,0.00
2022-11-12T04:49:48.897Z,0.00
2022-11-12T04:50:48.854Z,0.00
2022-11-12T04:51:48.807Z,0.00
2022-11-12T04:52:48.761Z,0.00
2022-11-12T04:53:48.725Z,0.00
2022-11-12T04:54:48.682Z,0.00
2022-11-12T04:55:48.624Z,0.00
2022-11-12T04:56:48.578Z,0.00
2022-11-12T04:57:48.548Z,0.00
2022-11-12T04:58:48.497Z,0.00
2022-11-12T04:59:48.444Z,0.00
2022-11-12T05:00:48.401Z,0.00
2022-11-12T05:01:48.353Z,0.00
2022-11-12T05:02:48.310Z,0.00
2022-11-12T05:03:48.278Z,0.00
2022-11-12T05:04:48.212Z,0.00
2022-11-12T05:05:48.167Z,0.00
2022-11-12T05:06:48.167Z,0.00
2022-11-12T05:07:48.080Z,0.00
2022-11-12T05:08:48.031Z,0.00
2022-11-12T05:09:48.015Z,0.00
2022-11-12T05:10:47.941Z,0.00
2022-11-12T05:11:47.895Z,0.00
2022-11-12T05:12:47.847Z,0.00
2022-11-12T05:13:47.829Z,0.00
2022-11-12T05:14:47.760Z,0.00
2022-11-12T05:15:47.716Z,0.00
2022-11-12T05:16:47.672Z,0.00
2022-11-12T05:17:47.625Z,0.00
2022-11-12T05:18:47.575Z,0.00
2022-11-12T05:19:47.563Z,0.00
2022-11-12T05:20:47.657Z,0.00
2022-11-12T05:21:47.437Z,0.00
2022-11-12T05:23:04.455Z,0.00
2022-11-12T05:23:47.347Z,0.00
2022-11-12T05:24:47.303Z,0.00
2022-11-12T05:25:47.254Z,0.00
2022-11-12T05:26:47.288Z,0.00
2022-11-12T05:27:47.167Z,0.00
2022-11-12T05:28:47.119Z,0.00
2022-11-12T05:29:47.073Z,0.00
2022-11-12T05:30:47.042Z,0.00
2022-11-12T05:31:46.990Z,0.00
2022-11-12T05:32:46.935Z,0.00
2022-11-12T05:33:46.891Z,0.00
2022-11-12T05:34:46.844Z,0.00
2022-11-12T05:35:46.797Z,0.00
2022-11-12T05:36:46.794Z,0.00
2022-11-12T05:37:46.707Z,0.00
2022-11-12T05:38:46.660Z,0.00
2022-11-12T05:39:46.782Z,0.00
2022-11-12T05:40:46.575Z,0.00
2022-11-12T05:42:11.471Z,0.00
2022-11-12T05:42:46.482Z,0.00
2022-11-12T05:43:46.435Z,0.00
2022-11-12T05:44:46.390Z,0.00
2022-11-12T05:45:46.366Z,0.00
2022-11-12T05:46:46.297Z,0.00
2022-11-12T05:47:46.250Z,0.00
2022-11-12T05:48:46.206Z,0.00
2022-11-12T05:49:46.163Z,0.00
2022-11-12T05:51:06.612Z,0.00
2022-11-12T05:51:46.091Z,0.00
2022-11-12T05:52:46.023Z,0.00
2022-11-12T05:53:45.980Z,0.00
2022-11-12T05:54:45.931Z,0.00
2022-11-12T05:55:45.891Z,0.00
2022-11-12T05:56:45.845Z,0.00
2022-11-12T05:57:45.817Z,0.00
2022-11-12T05:58:45.748Z,0.00
2022-11-12T05:59:45.729Z,0.00
2022-11-12T06:03:48.472Z,0.00
2022-11-12T06:04:48.448Z,0.00
2022-11-12T06:05:48.378Z,0.00
2022-11-12T06:06:48.347Z,0.00
2022-11-12T06:07:48.281Z,0.00
2022-11-12T06:08:48.232Z,0.00
2022-11-12T06:09:48.187Z,0.00
2022-11-12T06:10:48.161Z,0.00
2022-11-12T06:11:48.099Z,0.00
2022-11-12T06:12:48.052Z,0.00
2022-11-12T06:13:48.007Z,0.00
2022-11-12T06:14:47.956Z,0.00
2022-11-12T06:15:47.911Z,0.00
2022-11-12T06:16:47.879Z,0.00
2022-11-12T06:17:47.817Z,0.00
2022-11-12T06:18:47.772Z,0.00
2022-11-12T06:19:47.729Z,0.00
2022-11-12T06:20:47.678Z,0.00
2022-11-12T06:21:47.640Z,0.00
2022-11-12T06:22:47.611Z,0.00
2022-11-12T06:23:47.543Z,0.00
2022-11-12T06:24:47.494Z,0.00
2022-11-12T06:25:47.455Z,0.00
2022-11-12T06:26:47.406Z,5.63
2022-11-12T06:27:47.359Z,5.63
2022-11-12T06:28:47.399Z,5.63
2022-11-12T06:29:47.268Z,5.63
2022-11-12T06:30:47.225Z,5.63
2022-11-12T06:31:47.178Z,5.63
2022-11-12T06:32:47.132Z,11.25
2022-11-12T06:33:47.088Z,11.25
2022-11-12T06:34:47.070Z,11.25
2022-11-12T06:35:46.998Z,11.25
2022-11-12T06:36:46.948Z,16.88
2022-11-12T06:37:46.905Z,16.88
2022-11-12T06:38:46.887Z,16.88
2022-11-12T06:39:46.839Z,22.50
2022-11-12T06:40:46.768Z,22.50
2022-11-12T06:41:46.758Z,22.50
2022-11-12T06:42:46.680Z,28.13
2022-11-12T06:43:46.630Z,28.13
2022-11-12T06:44:46.586Z,28.13
2022-11-12T06:45:46.541Z,28.13
2022-11-12T06:46:46.501Z,28.13
2022-11-12T06:47:46.564Z,33.75
2022-11-12T06:48:46.405Z,33.75
2022-11-12T06:49:46.359Z,33.75
2022-11-12T06:50:46.318Z,39.38
2022-11-12T06:51:46.270Z,39.38
2022-11-12T06:52:46.227Z,39.38
2022-11-12T06:53:46.201Z,39.38
2022-11-12T06:54:46.133Z,45.00
2022-11-12T06:55:46.086Z,45.00
2022-11-12T06:56:46.146Z,45.00
2022-11-12T06:57:45.989Z,45.00
2022-11-12T06:58:45.957Z,50.63
2022-11-12T06:59:45.903Z,50.63
2022-11-12T07:00:45.865Z,50.63
2022-11-12T07:01:45.866Z,50.63
2022-11-12T07:02:45.787Z,50.63
2022-11-12T07:03:45.716Z,50.63
2022-11-12T07:04:45.679Z,56.25
2022-11-12T07:05:45.657Z,56.25
2022-11-12T07:06:45.616Z,61.88
2022-11-12T07:07:45.541Z,61.88
2022-11-12T07:08:45.496Z,67.50
2022-11-12T07:09:45.451Z,73.13
2022-11-12T07:10:45.411Z,73.13
2022-11-12T07:11:45.533Z,78.75
2022-11-12T07:12:49.080Z,78.75
2022-11-12T07:13:45.271Z,84.38
2022-11-12T07:14:45.228Z,84.38
2022-11-12T07:15:45.182Z,90.00
2022-11-12T07:16:45.138Z,90.00
2022-11-12T07:17:45.116Z,90.00
2022-11-12T07:18:45.049Z,90.00
2022-11-12T07:19:45.006Z,95.63
2022-11-12T07:20:44.954Z,101.25
2022-11-12T07:21:44.938Z,101.25
2022-11-12T07:22:44.872Z,101.25
2022-11-12T07:23:44.820Z,101.25
2022-11-12T07:24:44.774Z,106.88
2022-11-12T07:25:44.729Z,106.88
2022-11-12T07:26:47.494Z,106.88
2022-11-12T07:27:44.658Z,106.88
2022-11-12T07:28:44.593Z,112.50
2022-11-12T07:29:48.645Z,106.88
2022-11-12T07:30:44.508Z,106.88
2022-11-12T07:31:44.486Z,106.88
2022-11-12T07:32:48.375Z,106.88
2022-11-12T07:33:44.368Z,112.50
2022-11-12T07:34:44.342Z,123.75
2022-11-12T07:35:44.276Z,129.38
2022-11-12T07:36:44.233Z,135.00
2022-11-12T07:37:44.202Z,140.63
2022-11-12T07:38:44.141Z,140.63
2022-11-12T07:39:44.094Z,140.63
2022-11-12T07:40:44.049Z,140.63
2022-11-12T07:41:44.004Z,140.63
2022-11-12T07:42:43.957Z,140.63
2022-11-12T07:43:43.958Z,140.63
2022-11-12T07:44:43.870Z,140.63
2022-11-12T07:45:43.847Z,140.63
2022-11-12T07:46:43.791Z,140.63
2022-11-12T07:47:43.734Z,140.63
2022-11-12T07:48:43.690Z,140.63
2022-11-12T07:49:43.664Z,140.63
2022-11-12T07:50:43.597Z,140.63
2022-11-12T07:51:43.554Z,140.63
2022-11-12T07:52:43.508Z,140.63
2022-11-12T07:53:43.465Z,135.00
2022-11-12T07:54:43.417Z,140.63
2022-11-12T07:55:43.420Z,140.63
2022-11-12T07:56:43.329Z,146.25
2022-11-12T07:57:43.277Z,146.25
2022-11-12T07:58:43.238Z,146.25
2022-11-12T07:59:46.170Z,157.50
2022-11-12T08:00:43.149Z,151.88
2022-11-12T08:01:43.188Z,157.50
2022-11-12T08:02:43.060Z,168.75
2022-11-12T08:03:43.013Z,168.75
2022-11-12T08:04:42.965Z,168.75
2022-11-12T08:05:42.923Z,163.13
2022-11-12T08:06:43.041Z,168.75
2022-11-12T08:07:42.949Z,174.38
2022-11-12T08:08:42.787Z,185.63
2022-11-12T08:09:42.746Z,191.25
2022-11-12T08:10:42.698Z,196.88
2022-11-12T08:11:42.655Z,191.25
2022-11-12T08:12:42.611Z,191.25
2022-11-12T08:13:42.572Z,185.63
2022-11-12T08:14:42.675Z,185.63
2022-11-12T08:15:42.475Z,185.63
2022-11-12T08:16:42.432Z,185.63
2022-11-12T08:17:42.394Z,185.63
2022-11-12T08:18:42.340Z,185.63
2022-11-12T08:19:42.291Z,185.63
2022-11-12T08:20:42.284Z,191.25
2022-11-12T08:21:42.207Z,202.50
2022-11-12T08:22:47.910Z,202.50
2022-11-12T08:23:42.112Z,202.50
2022-11-12T08:24:42.073Z,202.50
2022-11-12T08:25:42.028Z,196.88
2022-11-12T08:26:42.001Z,208.13
2022-11-12T08:27:41.935Z,208.13
2022-11-12T08:28:41.891Z,213.75
2022-11-12T08:29:41.847Z,225.00
2022-11-12T08:30:41.803Z,230.63
2022-11-12T08:31:41.757Z,236.25
2022-11-12T08:32:41.742Z,241.88
2022-11-12T08:33:41.666Z,258.75
2022-11-12T08:34:41.622Z,270.00
2022-11-12T08:35:41.578Z,275.63
2022-11-12T08:36:41.535Z,281.25
2022-11-12T08:37:41.488Z,275.63
2022-11-12T08:38:41.462Z,275.63
2022-11-12T08:39:41.450Z,281.25
2022-11-12T08:40:41.356Z,275.63
2022-11-12T08:41:41.309Z,275.63
2022-11-12T08:42:41.278Z,275.63
2022-11-12T08:43:41.400Z,275.63
2022-11-12T08:44:41.173Z,281.25
2022-11-12T08:45:41.193Z,292.50
2022-11-12T08:46:41.083Z,315.00
2022-11-12T08:47:41.043Z,320.63
2022-11-12T08:48:40.995Z,320.63
2022-11-12T08:49:46.665Z,326.25
2022-11-12T08:50:40.906Z,331.88
2022-11-12T08:51:40.860Z,326.25
2022-11-12T08:52:40.815Z,320.63
2022-11-12T08:53:40.778Z,337.50
2022-11-12T08:54:40.728Z,354.38
2022-11-12T08:55:40.708Z,360.00
2022-11-12T08:56:40.635Z,376.88
2022-11-12T08:57:40.618Z,382.50
2022-11-12T08:58:40.544Z,393.75
2022-11-12T08:59:40.509Z,371.25
2022-11-12T09:00:40.471Z,365.63
2022-11-12T09:01:40.435Z,365.63
2022-11-12T09:02:40.365Z,365.63
2022-11-12T09:03:40.323Z,371.25
2022-11-12T09:04:40.275Z,382.50
2022-11-12T09:05:40.421Z,393.75
2022-11-12T09:06:40.256Z,399.38
2022-11-12T09:07:55.327Z,410.63
2022-11-12T09:08:40.096Z,410.63
2022-11-12T09:09:40.059Z,410.63
2022-11-12T09:10:40.009Z,410.63
2022-11-12T09:11:40.002Z,410.63
2022-11-12T09:12:39.923Z,416.25
2022-11-12T09:13:39.931Z,433.13
2022-11-12T09:14:39.832Z,433.13
2022-11-12T09:15:39.796Z,433.13
2022-11-12T09:16:39.741Z,438.75
2022-11-12T09:17:39.723Z,455.63
2022-11-12T09:18:39.652Z,466.88
2022-11-12T09:19:42.901Z,478.13
2022-11-12T09:20:39.565Z,489.38
2022-11-12T09:21:39.543Z,500.63
2022-11-12T09:22:39.476Z,506.25
2022-11-12T09:23:39.437Z,500.63
2022-11-12T09:24:39.388Z,483.75
2022-11-12T09:25:39.352Z,461.25
2022-11-12T09:26:39.317Z,450.00
2022-11-12T09:27:39.852Z,461.25
2022-11-12T09:28:39.214Z,478.13
2022-11-12T09:29:39.166Z,517.50
2022-11-12T09:30:39.123Z,545.63
2022-11-12T09:31:39.076Z,562.50
2022-11-12T09:32:39.055Z,545.63
2022-11-12T09:33:38.994Z,540.00
2022-11-12T09:34:38.945Z,545.63
2022-11-12T09:35:38.902Z,573.75
2022-11-12T09:36:39.928Z,697.50
2022-11-12T09:37:38.813Z,742.50
2022-11-12T09:38:38.793Z,731.25
2022-11-12T09:39:38.725Z,748.13
2022-11-12T09:40:38.676Z,748.13
2022-11-12T09:41:38.636Z,765.00
2022-11-12T09:42:38.591Z,753.75
2022-11-12T09:43:38.545Z,731.25
2022-11-12T09:44:38.524Z,725.63
2022-11-12T09:45:38.461Z,759.38
2022-11-12T09:46:38.418Z,787.50
2022-11-12T09:47:38.370Z,781.88
2022-11-12T09:48:38.351Z,753.75
2022-11-12T09:49:38.280Z,725.63
2022-11-12T09:50:38.238Z,680.63
2022-11-12T09:51:38.216Z,669.38
2022-11-12T09:52:38.150Z,691.88
2022-11-12T09:53:43.015Z,680.63
2022-11-12T09:54:38.079Z,720.00
2022-11-12T09:55:38.017Z,748.13
2022-11-12T09:56:37.990Z,798.75
2022-11-12T09:57:37.929Z,770.63
2022-11-12T09:58:37.888Z,686.25
2022-11-12T09:59:37.842Z,646.88
2022-11-12T10:00:42.436Z,658.13
2022-11-12T10:01:37.806Z,652.50
2022-11-12T10:02:37.724Z,641.25
2022-11-12T10:03:37.666Z,630.00
2022-11-12T10:04:37.624Z,646.88
2022-11-12T10:05:37.583Z,669.38
2022-11-12T10:06:37.542Z,652.50
2022-11-12T10:07:37.493Z,646.88
2022-11-12T10:08:37.477Z,646.88
2022-11-12T10:09:37.409Z,630.00
2022-11-12T10:10:37.393Z,618.75
2022-11-12T10:11:37.319Z,618.75
2022-11-12T10:12:37.274Z,613.13
2022-11-12T10:13:37.244Z,624.38
2022-11-12T10:14:37.186Z,630.00
2022-11-12T10:15:37.144Z,624.38
2022-11-12T10:16:37.127Z,613.13
2022-11-12T10:17:37.082Z,630.00
2022-11-12T10:18:37.040Z,669.38
2022-11-12T10:19:36.973Z,680.63
2022-11-12T10:20:38.791Z,691.88
2022-11-12T10:21:36.908Z,736.88
2022-11-12T10:22:36.844Z,793.13
2022-11-12T10:23:36.818Z,815.63
2022-11-12T10:24:36.760Z,793.13
2022-11-12T10:25:36.713Z,736.88
2022-11-12T10:26:36.674Z,697.50
2022-11-12T10:27:36.620Z,669.38
2022-11-12T10:28:38.967Z,641.25
2022-11-12T10:29:36.572Z,624.38
2022-11-12T10:30:36.494Z,624.38
2022-11-12T10:31:36.453Z,635.63
2022-11-12T10:32:36.404Z,630.00
2022-11-12T10:33:36.362Z,630.00
2022-11-12T10:34:36.326Z,635.63
2022-11-12T10:35:36.286Z,630.00
2022-11-12T10:36:36.236Z,630.00
2022-11-12T10:37:36.198Z,646.88
2022-11-12T10:38:36.151Z,652.50
2022-11-12T10:39:36.103Z,658.13
2022-11-12T10:40:36.064Z,630.00
2022-11-12T10:41:36.044Z,641.25
2022-11-12T10:42:36.010Z,641.25
2022-11-12T10:43:35.926Z,635.63
2022-11-12T10:44:35.887Z,635.63
2022-11-12T10:45:35.844Z,630.00
2022-11-12T10:46:35.823Z,613.13
2022-11-12T10:47:35.754Z,630.00
2022-11-12T10:48:35.945Z,613.13
2022-11-12T10:49:35.670Z,630.00
2022-11-12T10:50:35.625Z,618.75
2022-11-12T10:51:35.586Z,658.13
2022-11-12T10:52:35.567Z,641.25
2022-11-12T10:53:35.496Z,579.38
2022-11-12T10:54:35.451Z,540.00
2022-11-12T10:55:35.417Z,506.25
2022-11-12T10:56:35.366Z,489.38
2022-11-12T10:57:35.324Z,500.63
2022-11-12T10:58:35.314Z,523.13
2022-11-12T10:59:35.257Z,545.63
2022-11-12T11:00:35.217Z,590.63
2022-11-12T11:01:35.888Z,607.50
2022-11-12T11:02:35.109Z,630.00
2022-11-12T11:03:35.064Z,630.00
2022-11-12T11:04:35.026Z,618.75
2022-11-12T11:05:34.975Z,601.88
2022-11-12T11:06:34.983Z,635.63
2022-11-12T11:07:34.893Z,641.25
2022-11-12T11:08:36.426Z,641.25
2022-11-12T11:09:34.857Z,635.63
2022-11-12T11:10:34.759Z,658.13
2022-11-12T11:11:34.732Z,686.25
2022-11-12T11:12:34.670Z,686.25
2022-11-12T11:13:34.636Z,686.25
2022-11-12T11:14:34.590Z,720.00
2022-11-12T11:15:34.551Z,703.13
2022-11-12T11:16:34.506Z,658.13
2022-11-12T11:17:34.477Z,601.88
2022-11-12T11:18:34.417Z,556.88
2022-11-12T11:19:34.380Z,523.13
2022-11-12T11:20:34.329Z,545.63
2022-11-12T11:21:39.232Z,601.88
2022-11-12T11:22:34.244Z,652.50
2022-11-12T11:23:34.225Z,669.38
2022-11-12T11:24:34.157Z,658.13
2022-11-12T11:25:34.141Z,652.50
2022-11-12T11:26:34.075Z,641.25
2022-11-12T11:27:34.032Z,646.88
2022-11-12T11:28:33.993Z,630.00
2022-11-12T11:29:33.945Z,630.00
2022-11-12T11:30:33.904Z,641.25
2022-11-12T11:31:33.886Z,635.63
2022-11-12T11:32:37.360Z,663.75
2022-11-12T11:33:33.771Z,658.13
2022-11-12T11:34:33.729Z,652.50
2022-11-12T11:35:33.684Z,663.75
2022-11-12T11:36:33.661Z,675.00
2022-11-12T11:37:33.598Z,691.88
2022-11-12T11:38:33.555Z,703.13
2022-11-12T11:39:33.519Z,720.00
2022-11-12T11:40:33.470Z,697.50
2022-11-12T11:41:33.429Z,658.13
2022-11-12T11:42:33.423Z,663.75
2022-11-12T11:43:33.413Z,675.00
2022-11-12T11:44:33.348Z,697.50
2022-11-12T11:45:33.260Z,708.75
2022-11-12T11:46:33.216Z,708.75
2022-11-12T11:47:50.396Z,708.75
2022-11-12T11:48:33.142Z,691.88
2022-11-12T11:49:33.082Z,793.13
2022-11-12T11:50:33.039Z,810.00
2022-11-12T11:51:32.997Z,798.75
2022-11-12T11:52:32.960Z,753.75
2022-11-12T11:53:32.913Z,731.25
2022-11-12T11:54:32.897Z,736.88
2022-11-12T11:55:32.832Z,731.25
2022-11-12T11:56:32.786Z,720.00
2022-11-12T11:57:32.771Z,725.63
2022-11-12T11:58:32.701Z,725.63
2022-11-12T11:59:32.660Z,736.88
2022-11-12T12:00:32.613Z,776.25
2022-11-12T12:01:32.574Z,731.25
2022-11-12T12:02:32.530Z,714.38
2022-11-12T12:03:33.083Z,720.00
2022-11-12T12:04:32.443Z,742.50
2022-11-12T12:05:32.400Z,765.00
2022-11-12T12:06:32.361Z,765.00
2022-11-12T12:07:32.311Z,720.00
2022-11-12T12:08:32.271Z,793.13
2022-11-12T12:09:32.255Z,731.25
2022-11-12T12:10:46.616Z,748.13
2022-11-12T12:11:32.145Z,731.25
2022-11-12T12:12:32.101Z,753.75
2022-11-12T12:13:32.085Z,731.25
2022-11-12T12:14:32.018Z,652.50
2022-11-12T12:15:31.974Z,630.00
2022-11-12T12:16:31.929Z,613.13
2022-11-12T12:17:32.145Z,624.38
2022-11-12T12:18:31.846Z,652.50
2022-11-12T12:19:31.813Z,652.50
2022-11-12T12:20:31.760Z,680.63
2022-11-12T12:21:31.727Z,725.63
2022-11-12T12:22:31.678Z,748.13
2022-11-12T12:23:31.663Z,736.88
2022-11-12T12:24:31.588Z,742.50
2022-11-12T12:25:31.545Z,708.75
2022-11-12T12:26:31.507Z,680.63
2022-11-12T12:27:31.488Z,641.25
2022-11-12T12:28:31.424Z,669.38
2022-11-12T12:29:31.380Z,646.88
2022-11-12T12:30:31.336Z,635.63
2022-11-12T12:31:31.292Z,663.75
2022-11-12T12:32:31.253Z,675.00
2022-11-12T12:33:31.225Z,601.88
2022-11-12T12:34:31.169Z,556.88
2022-11-12T12:35:31.117Z,545.63
2022-11-12T12:36:31.078Z,489.38
2022-11-12T12:37:31.040Z,455.63
2022-11-12T12:38:30.997Z,444.38
2022-11-12T12:39:30.979Z,444.38
2022-11-12T12:40:30.909Z,450.00
2022-11-12T12:41:30.882Z,461.25
2022-11-12T12:42:30.822Z,461.25
2022-11-12T12:43:30.780Z,466.88
2022-11-12T12:44:30.734Z,472.50
2022-11-12T12:45:35.576Z,466.88
2022-11-12T12:46:30.650Z,500.63
2022-11-12T12:47:30.604Z,500.63
2022-11-12T12:48:30.569Z,500.63
2022-11-12T12:49:30.519Z,511.88
2022-11-12T12:50:30.480Z,478.13
2022-11-12T12:51:30.455Z,461.25
2022-11-12T12:52:30.389Z,495.00
2022-11-12T12:53:30.344Z,450.00
2022-11-12T12:54:30.302Z,450.00
2022-11-12T12:55:30.264Z,472.50
2022-11-12T12:56:30.218Z,495.00